Terminal Aerodrome Forecast
Issued by NWS

Home | Current Version | Previous Version | Text Only | Print | Product List | Glossary On
Versions: 1 2 3 4 5 6 7 8 9 10 11 12 13 14 15 16 17
853
FTUS41 KCLE 221739
TAFFDY
TAF
KFDY 221739Z 2218/2318 VRB03KT P6SM SCT100
     FM230200 04008KT 5SM BR OVC012
     FM231000 04010KT 3SM BR VCSH OVC008=

USA.gov is the U.S. government's official web portal to all federal, state and local government web resources and services.